createdAt,value
2023-05-05T00:00:34.632Z,93.81
2023-05-05T00:03:03.217Z,94.78
2023-05-05T00:05:31.681Z,95.39
2023-05-05T00:08:00.071Z,95.20
2023-05-05T00:10:28.317Z,95.51
2023-05-05T00:12:57.055Z,96.48
2023-05-05T00:15:27.459Z,96.15
2023-05-05T00:17:56.482Z,95.58
2023-05-05T00:20:24.628Z,95.44
2023-05-05T00:22:55.274Z,95.84
2023-05-05T00:25:24.069Z,95.84
2023-05-05T00:27:52.084Z,95.60
2023-05-05T00:30:20.708Z,96.37
2023-05-05T00:32:50.798Z,95.79
2023-05-05T00:35:20.107Z,95.07
2023-05-05T00:37:49.227Z,94.84
2023-05-05T00:40:18.751Z,94.37
2023-05-05T00:42:48.170Z,94.42
2023-05-05T00:45:17.246Z,93.91
2023-05-05T00:47:49.172Z,93.44
2023-05-05T00:50:25.506Z,93.39
2023-05-05T00:52:57.146Z,94.03
2023-05-05T00:55:29.419Z,94.39
2023-05-05T00:57:59.037Z,94.42
2023-05-05T01:00:28.209Z,93.32
2023-05-05T01:02:57.368Z,93.43
2023-05-05T01:05:29.137Z,91.31
2023-05-05T01:08:13.387Z,92.64
2023-05-05T01:10:46.399Z,93.80
2023-05-05T01:13:22.777Z,94.71
2023-05-05T01:15:57.551Z,94.97
2023-05-05T01:18:33.553Z,94.92
2023-05-05T01:21:13.762Z,95.88
2023-05-05T01:24:11.722Z,96.71
2023-05-05T01:27:09.681Z,97.71
2023-05-05T01:29:51.690Z,98.19
2023-05-05T01:32:25.634Z,98.86
2023-05-05T01:34:58.796Z,99.15
2023-05-05T01:37:31.860Z,99.61
2023-05-05T01:40:05.290Z,100.00
2023-05-05T01:42:36.705Z,99.40
2023-05-05T01:45:08.196Z,99.54
2023-05-05T01:47:40.486Z,100.00
2023-05-05T01:50:12.554Z,99.50
2023-05-05T01:52:42.718Z,100.00
2023-05-05T01:55:12.400Z,100.00
2023-05-05T01:57:43.671Z,100.00
2023-05-05T02:00:13.170Z,100.00
2023-05-05T02:02:50.477Z,99.39
2023-05-05T02:05:22.752Z,99.79
2023-05-05T02:07:53.951Z,99.45
2023-05-05T02:10:22.527Z,99.68
2023-05-05T02:12:53.630Z,98.13
2023-05-05T02:15:26.154Z,97.50
2023-05-05T02:17:57.561Z,97.33
2023-05-05T02:20:25.815Z,98.48
2023-05-05T02:22:55.030Z,99.65
2023-05-05T02:25:24.829Z,99.03
2023-05-05T02:27:57.846Z,98.86
2023-05-05T02:30:28.842Z,99.46
2023-05-05T02:33:05.146Z,99.63
2023-05-05T02:35:37.774Z,100.00
2023-05-05T02:38:14.767Z,100.00
2023-05-05T02:40:46.045Z,100.00
2023-05-05T02:43:20.868Z,100.00
2023-05-05T02:45:49.713Z,100.00
2023-05-05T02:48:21.101Z,100.00
2023-05-05T02:50:50.932Z,100.00
2023-05-05T02:53:27.978Z,100.00
2023-05-05T02:56:03.005Z,100.00
2023-05-05T02:58:43.986Z,100.00
2023-05-05T03:01:28.009Z,100.00
2023-05-05T03:04:07.375Z,100.00
2023-05-05T03:06:44.545Z,100.00
2023-05-05T03:09:26.865Z,100.00
2023-05-05T03:12:03.870Z,100.00
2023-05-05T03:14:42.181Z,100.00
2023-05-05T03:17:14.509Z,100.00
2023-05-05T03:19:45.365Z,100.00
2023-05-05T03:22:13.971Z,100.00
2023-05-05T03:24:51.028Z,100.00
2023-05-05T03:27:22.935Z,100.00
2023-05-05T03:29:51.445Z,100.00
2023-05-05T03:32:19.766Z,100.00
2023-05-05T03:34:49.455Z,100.00
2023-05-05T03:37:17.951Z,100.00
2023-05-05T03:39:46.343Z,100.00
2023-05-05T03:42:14.494Z,100.00
2023-05-05T03:44:42.795Z,100.00
2023-05-05T03:47:10.908Z,100.00
2023-05-05T03:49:41.147Z,100.00
2023-05-05T03:52:13.252Z,100.00
2023-05-05T03:54:43.574Z,100.00
2023-05-05T03:57:11.827Z,100.00
2023-05-05T03:59:40.005Z,100.00
2023-05-05T04:02:08.860Z,100.00
2023-05-05T04:04:39.928Z,100.00
2023-05-05T04:07:08.530Z,100.00
2023-05-05T04:09:39.216Z,100.00
2023-05-05T04:12:07.825Z,100.00
2023-05-05T04:14:36.184Z,100.00
2023-05-05T04:17:04.550Z,100.00
2023-05-05T04:19:33.571Z,100.00
2023-05-05T04:22:03.287Z,100.00
2023-05-05T04:24:31.954Z,100.00
2023-05-05T04:27:04.388Z,100.00
2023-05-05T04:29:32.645Z,100.00
2023-05-05T04:32:01.982Z,100.00
2023-05-05T04:34:30.657Z,100.00
2023-05-05T04:36:58.951Z,100.00
2023-05-05T04:39:45.912Z,100.00
2023-05-05T04:42:15.890Z,100.00
2023-05-05T04:44:44.209Z,100.00
2023-05-05T04:47:14.680Z,100.00
2023-05-05T04:49:44.903Z,100.00
2023-05-05T04:52:14.344Z,100.00
2023-05-05T04:54:43.236Z,100.00
2023-05-05T04:58:49.328Z,100.00
2023-05-05T05:01:20.116Z,100.00
2023-05-05T05:03:48.568Z,100.00
2023-05-05T05:06:16.830Z,100.00
2023-05-05T05:08:47.304Z,100.00
2023-05-05T05:11:15.625Z,100.00
2023-05-05T05:13:44.001Z,100.00
2023-05-05T05:16:14.106Z,99.30
2023-05-05T05:18:42.812Z,96.66
2023-05-05T05:21:11.255Z,96.19
2023-05-05T05:23:40.360Z,94.10
2023-05-05T05:26:09.274Z,92.78
2023-05-05T05:28:37.714Z,93.17
2023-05-05T05:31:06.824Z,94.64
2023-05-05T05:33:36.493Z,95.61
2023-05-05T05:36:05.251Z,95.99
2023-05-05T05:38:33.384Z,97.60
2023-05-05T05:41:07.456Z,98.37
2023-05-05T05:43:37.042Z,98.71
2023-05-05T05:46:09.447Z,98.58
2023-05-05T05:48:41.235Z,100.00
2023-05-05T05:51:11.967Z,97.72
2023-05-05T05:53:40.146Z,98.52
2023-05-05T05:56:10.575Z,99.32
2023-05-05T05:58:39.288Z,100.00
2023-05-05T06:01:10.651Z,100.00
2023-05-05T06:03:39.105Z,100.00
2023-05-05T06:06:09.453Z,100.00
2023-05-05T06:08:38.189Z,100.00
2023-05-05T06:11:06.472Z,99.65
2023-05-05T06:13:35.376Z,99.74
2023-05-05T06:16:03.626Z,100.00
2023-05-05T06:18:34.693Z,99.64
2023-05-05T06:21:03.364Z,99.62
2023-05-05T06:23:35.159Z,98.59
2023-05-05T06:26:06.886Z,98.55
2023-05-05T06:28:35.357Z,94.67
2023-05-05T06:31:03.519Z,91.04
2023-05-05T06:33:31.756Z,85.75
2023-05-05T06:35:59.859Z,84.21
2023-05-05T06:38:28.072Z,84.79
2023-05-05T06:40:58.613Z,84.00
2023-05-05T06:43:31.849Z,82.69
2023-05-05T06:46:02.697Z,80.45
2023-05-05T06:48:33.490Z,80.99
2023-05-05T06:51:03.078Z,84.23
2023-05-05T06:53:31.924Z,86.93
2023-05-05T06:56:01.506Z,88.46
2023-05-05T06:58:33.023Z,88.63
2023-05-05T07:01:01.461Z,85.24
2023-05-05T07:03:29.731Z,78.81
2023-05-05T07:05:57.814Z,73.69
2023-05-05T07:08:26.535Z,73.96
2023-05-05T07:10:55.294Z,69.10
2023-05-05T07:13:25.362Z,63.79
2023-05-05T07:15:53.581Z,61.25
2023-05-05T07:18:21.584Z,59.08
2023-05-05T07:20:52.054Z,60.20
2023-05-05T07:23:20.387Z,63.80
2023-05-05T07:25:48.592Z,65.70
2023-05-05T07:28:16.941Z,61.25
2023-05-05T07:30:46.428Z,62.23
2023-05-05T07:33:14.538Z,65.31
2023-05-05T07:35:42.985Z,65.22
2023-05-05T07:38:11.218Z,63.83
2023-05-05T07:40:41.642Z,61.09
2023-05-05T07:43:10.001Z,64.20
2023-05-05T07:45:38.212Z,61.97
2023-05-05T07:48:07.900Z,65.11
2023-05-05T07:50:36.296Z,61.80
2023-05-05T07:53:13.529Z,58.30
2023-05-05T07:55:43.357Z,55.02
2023-05-05T07:58:11.967Z,54.23
2023-05-05T08:00:40.983Z,55.31
2023-05-05T08:03:12.155Z,54.52
2023-05-05T08:05:40.664Z,53.88
2023-05-05T08:08:09.396Z,53.40
2023-05-05T08:10:40.141Z,52.79
2023-05-05T08:13:08.319Z,48.45
2023-05-05T08:15:36.652Z,45.18
2023-05-05T08:18:05.044Z,47.53
2023-05-05T08:20:34.814Z,48.21
2023-05-05T08:23:05.916Z,46.59
2023-05-05T08:25:34.157Z,44.50
2023-05-05T08:28:02.320Z,45.97
2023-05-05T08:30:31.323Z,45.12
2023-05-05T08:33:00.626Z,44.83
2023-05-05T08:35:29.212Z,45.22
2023-05-05T08:37:59.297Z,42.99
2023-05-05T08:40:33.358Z,41.37
2023-05-05T08:43:04.190Z,42.27
2023-05-05T08:45:33.093Z,42.58
2023-05-05T08:48:05.950Z,41.26
2023-05-05T08:50:34.527Z,42.21
2023-05-05T08:53:11.585Z,38.61
2023-05-05T08:55:47.409Z,38.43
2023-05-05T08:58:18.904Z,39.68
2023-05-05T09:00:47.608Z,38.35
2023-05-05T09:03:17.346Z,37.89
2023-05-05T09:05:45.871Z,36.55
2023-05-05T09:08:18.014Z,35.89
2023-05-05T09:10:46.740Z,35.04
2023-05-05T09:13:14.912Z,35.06
2023-05-05T09:15:43.280Z,33.62
2023-05-05T09:18:12.458Z,35.58
2023-05-05T09:20:42.178Z,33.63
2023-05-05T09:23:12.147Z,34.29
2023-05-05T09:25:42.963Z,33.84
2023-05-05T09:28:15.775Z,29.99
2023-05-05T09:30:46.071Z,30.37
2023-05-05T09:33:15.839Z,33.06
2023-05-05T09:35:52.209Z,32.35
2023-05-05T09:38:21.652Z,32.10
2023-05-05T09:40:54.242Z,32.57
2023-05-05T09:43:24.016Z,32.27
2023-05-05T09:45:52.738Z,30.05
2023-05-05T09:48:28.678Z,29.88
2023-05-05T09:50:57.709Z,27.37
2023-05-05T09:53:40.871Z,28.53
2023-05-05T09:56:11.115Z,26.93
2023-05-05T09:59:58.718Z,25.91
2023-05-05T10:02:34.656Z,27.16
2023-05-05T10:05:10.998Z,27.78
2023-05-05T10:07:40.979Z,27.54
2023-05-05T10:10:10.375Z,26.00
2023-05-05T10:12:39.314Z,26.32
2023-05-05T10:15:12.340Z,28.91
2023-05-05T10:18:02.234Z,28.80
2023-05-05T10:20:36.436Z,28.74
2023-05-05T10:23:06.938Z,29.22
2023-05-05T10:25:43.129Z,29.60
2023-05-05T10:28:17.708Z,29.26
2023-05-05T10:30:53.636Z,29.42
2023-05-05T10:36:01.987Z,34.54
2023-05-05T10:38:31.407Z,36.38
2023-05-05T10:41:00.762Z,36.35
2023-05-05T10:43:30.365Z,36.15
2023-05-05T10:46:00.869Z,37.12
2023-05-05T10:48:35.502Z,36.49
2023-05-05T10:51:27.439Z,35.81
2023-05-05T10:54:10.450Z,38.22
2023-05-05T10:56:42.192Z,37.90
2023-05-05T10:59:41.155Z,36.83
2023-05-05T11:02:28.094Z,35.97
2023-05-05T11:05:24.206Z,34.74
2023-05-05T11:07:52.919Z,36.44
2023-05-05T11:10:23.278Z,37.31
2023-05-05T11:13:20.726Z,38.85
2023-05-05T11:15:50.406Z,39.07
2023-05-05T11:18:36.009Z,38.81
2023-05-05T11:21:22.306Z,40.56
2023-05-05T11:23:52.078Z,41.02
2023-05-05T11:26:51.379Z,42.01
2023-05-05T11:32:15.855Z,41.80
2023-05-05T11:34:51.645Z,42.33
2023-05-05T11:37:24.085Z,43.66
2023-05-05T11:40:05.302Z,43.93
2023-05-05T11:42:33.892Z,44.99
2023-05-05T11:45:02.326Z,44.73
2023-05-05T11:47:34.122Z,44.80
2023-05-05T11:50:23.254Z,43.07
2023-05-05T11:52:51.895Z,41.57
2023-05-05T11:55:24.016Z,40.29
2023-05-05T11:57:52.687Z,40.14
2023-05-05T12:00:33.966Z,39.15
2023-05-05T12:03:02.499Z,38.77
2023-05-05T12:05:35.742Z,37.53
2023-05-05T12:08:07.783Z,36.51
2023-05-05T12:10:38.301Z,35.19
2023-05-05T12:13:18.497Z,36.38
2023-05-05T12:15:48.837Z,36.83
2023-05-05T12:18:20.211Z,37.55
2023-05-05T12:20:50.077Z,37.02
2023-05-05T12:23:18.427Z,36.38
2023-05-05T12:25:49.362Z,36.21
2023-05-05T12:28:17.597Z,36.65
2023-05-05T12:30:57.736Z,36.61
2023-05-05T12:33:26.286Z,35.90
2023-05-05T12:35:56.441Z,34.28
2023-05-05T12:38:27.202Z,33.44
2023-05-05T12:40:57.851Z,33.40
2023-05-05T12:43:31.387Z,33.56
2023-05-05T12:46:03.767Z,32.52
2023-05-05T12:48:32.076Z,32.32
2023-05-05T12:51:20.028Z,32.76
2023-05-05T12:54:03.616Z,34.30
2023-05-05T12:56:36.786Z,33.54
2023-05-05T12:59:07.737Z,33.46
2023-05-05T13:01:37.465Z,33.55
2023-05-05T13:04:10.855Z,34.04
2023-05-05T13:06:42.685Z,33.20
2023-05-05T13:09:25.098Z,31.69
2023-05-05T13:11:56.442Z,31.46
2023-05-05T13:14:24.857Z,32.37
2023-05-05T13:16:54.205Z,33.18
2023-05-05T13:19:23.730Z,33.27
2023-05-05T13:21:53.541Z,34.14
2023-05-05T13:24:28.596Z,34.28
2023-05-05T13:27:04.162Z,33.52
2023-05-05T13:29:35.471Z,34.93
2023-05-05T13:32:04.185Z,33.42
2023-05-05T13:34:32.443Z,35.13
2023-05-05T13:37:02.507Z,34.40
2023-05-05T13:39:30.968Z,33.18
2023-05-05T13:41:59.162Z,34.75
2023-05-05T13:44:27.375Z,34.58
2023-05-05T13:46:55.896Z,35.74
2023-05-05T13:49:24.125Z,35.18
2023-05-05T13:51:52.220Z,35.75
2023-05-05T13:54:21.993Z,35.56
2023-05-05T13:56:50.122Z,35.94
2023-05-05T13:59:18.460Z,36.69
2023-05-05T14:01:46.799Z,37.27
2023-05-05T14:04:15.553Z,38.74
2023-05-05T14:06:47.222Z,40.54
2023-05-05T14:09:24.813Z,41.62
2023-05-05T14:11:53.718Z,41.49
2023-05-05T14:14:24.628Z,41.06
2023-05-05T14:16:53.384Z,41.27
2023-05-05T14:19:24.689Z,42.14
2023-05-05T14:21:53.205Z,41.55
2023-05-05T14:24:23.448Z,41.79
2023-05-05T14:26:51.899Z,41.62
2023-05-05T14:29:20.156Z,42.01
2023-05-05T14:31:48.383Z,42.37
2023-05-05T14:34:26.862Z,47.84
2023-05-05T14:37:08.607Z,46.59
2023-05-05T14:39:46.644Z,45.13
2023-05-05T14:42:29.385Z,46.14
2023-05-05T14:45:03.267Z,45.46
2023-05-05T14:47:49.375Z,43.94
2023-05-05T14:50:44.591Z,44.59
2023-05-05T14:53:27.038Z,44.02
2023-05-05T14:56:17.679Z,42.75
2023-05-05T15:01:06.145Z,43.22
2023-05-05T15:03:49.309Z,43.29
2023-05-05T15:06:31.985Z,43.73
2023-05-05T15:09:06.326Z,45.08
2023-05-05T15:11:43.097Z,46.09
2023-05-05T15:14:38.465Z,48.01
2023-05-05T15:17:20.611Z,48.76
2023-05-05T15:20:02.136Z,48.50
2023-05-05T15:22:33.658Z,48.61
2023-05-05T15:25:16.418Z,48.36
2023-05-05T15:27:52.050Z,46.66
2023-05-05T15:30:27.367Z,46.82
2023-05-05T15:33:05.908Z,46.95
2023-05-05T15:35:38.443Z,46.48
2023-05-05T15:38:18.234Z,46.81
2023-05-05T15:41:06.692Z,47.59
2023-05-05T15:43:40.498Z,48.84
2023-05-05T15:46:23.080Z,49.44
2023-05-05T15:48:59.993Z,49.55
2023-05-05T15:54:32.174Z,54.77
2023-05-05T15:57:06.785Z,61.22
2023-05-05T15:59:47.150Z,66.22
2023-05-05T16:02:31.605Z,69.40
2023-05-05T16:05:31.070Z,77.77
2023-05-05T16:08:17.195Z,84.34
2023-05-05T16:11:07.314Z,88.46
2023-05-05T16:13:40.445Z,95.59
2023-05-05T16:16:34.384Z,99.37
2023-05-05T16:19:20.732Z,100.00
2023-05-05T16:22:06.553Z,100.00
2023-05-05T16:24:44.312Z,100.00
2023-05-05T16:27:21.208Z,100.00
2023-05-05T16:29:59.909Z,100.00
2023-05-05T16:32:33.817Z,100.00
2023-05-05T16:35:16.161Z,100.00
2023-05-05T16:38:01.738Z,100.00
2023-05-05T16:40:36.548Z,100.00
2023-05-05T16:43:32.183Z,100.00
2023-05-05T16:46:12.523Z,100.00
2023-05-05T16:48:48.436Z,100.00
2023-05-05T16:51:26.239Z,100.00
2023-05-05T16:54:13.935Z,100.00
2023-05-05T16:56:54.463Z,100.00
2023-05-05T16:59:31.689Z,100.00
2023-05-05T17:02:03.490Z,100.00
2023-05-05T17:04:48.088Z,100.00
2023-05-05T17:07:21.662Z,100.00
2023-05-05T17:09:59.888Z,100.00
2023-05-05T17:12:38.418Z,100.00
2023-05-05T17:15:17.357Z,100.00
2023-05-05T17:17:51.871Z,100.00
2023-05-05T17:20:29.505Z,100.00
2023-05-05T17:22:59.929Z,100.00
2023-05-05T17:25:43.438Z,100.00
2023-05-05T17:28:26.449Z,100.00
2023-05-05T17:31:02.564Z,100.00
2023-05-05T17:33:35.445Z,100.00
2023-05-05T17:36:21.338Z,100.00
2023-05-05T17:39:07.483Z,100.00
2023-05-05T17:41:49.319Z,100.00
2023-05-05T17:44:22.322Z,100.00
2023-05-05T17:46:54.621Z,100.00
2023-05-05T17:49:25.199Z,100.00
2023-05-05T17:51:53.446Z,100.00
2023-05-05T17:54:23.537Z,100.00
2023-05-05T17:56:53.215Z,100.00
2023-05-05T17:59:21.502Z,100.00
2023-05-05T18:01:49.842Z,100.00
2023-05-05T18:04:17.982Z,100.00
2023-05-05T18:06:46.398Z,100.00
2023-05-05T18:09:16.793Z,100.00
2023-05-05T18:11:44.907Z,100.00
2023-05-05T18:14:14.744Z,100.00
2023-05-05T18:16:47.664Z,100.00
2023-05-05T18:19:16.204Z,100.00
2023-05-05T18:21:44.322Z,100.00
2023-05-05T18:24:20.104Z,100.00
2023-05-05T18:26:50.019Z,100.00
2023-05-05T18:29:22.731Z,100.00
2023-05-05T18:31:54.741Z,100.00
2023-05-05T18:34:23.120Z,100.00
2023-05-05T18:36:54.359Z,100.00
2023-05-05T18:39:22.572Z,100.00
2023-05-05T18:41:51.007Z,100.00
2023-05-05T18:44:19.910Z,100.00
2023-05-05T18:46:49.863Z,100.00
2023-05-05T18:49:18.183Z,100.00
2023-05-05T18:51:46.383Z,100.00
2023-05-05T18:54:14.750Z,100.00
2023-05-05T18:56:43.122Z,100.00
2023-05-05T18:59:11.753Z,100.00
2023-05-05T19:01:41.053Z,100.00
2023-05-05T19:04:26.649Z,100.00
2023-05-05T19:06:58.159Z,100.00
2023-05-05T19:09:26.995Z,100.00
2023-05-05T19:11:55.592Z,100.00
2023-05-05T19:14:23.903Z,100.00
2023-05-05T19:16:52.565Z,100.00
2023-05-05T19:19:22.236Z,100.00
2023-05-05T19:21:50.628Z,100.00
2023-05-05T19:24:18.748Z,100.00
2023-05-05T19:26:49.257Z,100.00
2023-05-05T19:29:17.886Z,100.00
2023-05-05T19:31:46.086Z,100.00
2023-05-05T19:34:14.318Z,100.00
2023-05-05T19:36:44.093Z,100.00
2023-05-05T19:39:13.827Z,100.00
2023-05-05T19:41:44.140Z,100.00
2023-05-05T19:44:12.825Z,100.00
2023-05-05T19:46:41.026Z,100.00
2023-05-05T19:49:09.702Z,100.00
2023-05-05T19:51:37.910Z,100.00
2023-05-05T19:54:07.932Z,100.00
2023-05-05T19:56:36.534Z,100.00
2023-05-05T20:01:56.992Z,100.00
2023-05-05T20:04:25.381Z,100.00
2023-05-05T20:06:53.575Z,100.00
2023-05-05T20:09:21.824Z,100.00
2023-05-05T20:11:50.013Z,100.00
2023-05-05T20:14:18.261Z,100.00
2023-05-05T20:16:46.941Z,100.00
2023-05-05T20:19:17.023Z,100.00
2023-05-05T20:21:45.232Z,100.00
2023-05-05T20:24:13.521Z,100.00
2023-05-05T20:26:43.995Z,100.00
2023-05-05T20:29:14.765Z,100.00
2023-05-05T20:31:43.523Z,100.00
2023-05-05T20:34:11.795Z,100.00
2023-05-05T20:36:41.439Z,100.00
2023-05-05T20:39:16.419Z,100.00
2023-05-05T20:41:47.456Z,100.00
2023-05-05T20:44:15.696Z,100.00
2023-05-05T20:46:43.879Z,100.00
2023-05-05T20:49:12.107Z,100.00
2023-05-05T20:51:44.033Z,100.00
2023-05-05T20:54:12.289Z,100.00
2023-05-05T20:56:40.878Z,100.00
2023-05-05T20:59:08.967Z,100.00
2023-05-05T21:01:39.991Z,100.00
2023-05-05T21:04:08.283Z,100.00
2023-05-05T21:06:38.901Z,100.00
2023-05-05T21:09:08.551Z,100.00
2023-05-05T21:11:36.984Z,100.00
2023-05-05T21:14:05.669Z,100.00
2023-05-05T21:16:35.925Z,100.00
2023-05-05T21:19:06.998Z,100.00
2023-05-05T21:21:35.160Z,100.00
2023-05-05T21:24:08.430Z,100.00
2023-05-05T21:26:40.343Z,100.00
2023-05-05T21:29:08.641Z,100.00
2023-05-05T21:31:37.085Z,100.00
2023-05-05T21:34:05.412Z,100.00
2023-05-05T21:36:36.523Z,100.00
2023-05-05T21:39:04.944Z,100.00
2023-05-05T21:41:34.618Z,100.00
2023-05-05T21:44:02.997Z,100.00
2023-05-05T21:46:31.332Z,100.00
2023-05-05T21:48:59.523Z,100.00
2023-05-05T21:51:30.541Z,100.00
2023-05-05T21:54:00.018Z,100.00
2023-05-05T21:56:28.228Z,100.00
2023-05-05T21:58:57.819Z,100.00
2023-05-05T22:01:26.038Z,100.00
2023-05-05T22:03:54.808Z,100.00
2023-05-05T22:06:25.912Z,100.00
2023-05-05T22:08:54.077Z,100.00
2023-05-05T22:11:22.321Z,100.00
2023-05-05T22:13:53.017Z,100.00
2023-05-05T22:16:24.842Z,100.00
2023-05-05T22:18:57.701Z,100.00
2023-05-05T22:21:26.902Z,100.00
2023-05-05T22:23:55.154Z,100.00
2023-05-05T22:26:23.449Z,100.00
2023-05-05T22:28:51.583Z,100.00
2023-05-05T22:31:21.713Z,100.00
2023-05-05T22:33:51.647Z,100.00
2023-05-05T22:36:19.847Z,100.00
2023-05-05T22:38:50.401Z,100.00
2023-05-05T22:41:21.277Z,100.00
2023-05-05T22:43:52.346Z,100.00
2023-05-05T22:46:20.499Z,100.00
2023-05-05T22:48:49.209Z,100.00
2023-05-05T22:51:20.869Z,100.00
2023-05-05T22:53:49.021Z,100.00
2023-05-05T22:56:17.262Z,100.00
2023-05-05T22:58:46.548Z,100.00
2023-05-05T23:01:14.803Z,100.00
2023-05-05T23:03:43.374Z,100.00
2023-05-05T23:06:11.500Z,100.00
2023-05-05T23:11:29.714Z,100.00
2023-05-05T23:13:57.770Z,100.00
2023-05-05T23:16:26.047Z,100.00
2023-05-05T23:18:54.161Z,100.00
2023-05-05T23:21:25.379Z,100.00
2023-05-05T23:23:55.612Z,100.00
2023-05-05T23:26:23.926Z,100.00
2023-05-05T23:28:51.988Z,100.00
2023-05-05T23:31:20.187Z,100.00
2023-05-05T23:33:48.504Z,100.00
2023-05-05T23:36:16.730Z,100.00
2023-05-05T23:38:44.869Z,100.00
2023-05-05T23:41:14.569Z,100.00
2023-05-05T23:43:42.934Z,100.00
2023-05-05T23:46:11.095Z,100.00
2023-05-05T23:48:39.346Z,100.00
2023-05-05T23:51:07.433Z,100.00
2023-05-05T23:53:40.064Z,100.00
2023-05-05T23:56:08.502Z,100.00
2023-05-05T23:58:37.909Z,100.00
